Time;durP1;ratioP1;P1;durP2;ratioP2;P2;SDS_P1;SDS_P2;PMS_P1;PMS_P2;Temp;Humidity;BMP_temperature;BMP_pressure;BME280_temperature;BME280_humidity;BME280_pressure;Samples;Min_cycle;Max_cycle;Signal;HPM_P1;HPM_P2
2024/01/30 00:01:28;;;;;;;20.52;15.55;;;7.20;91.70;;;;;;4994741;28;20139;-86
2024/01/30 00:03:54;;;;;;;22.95;17.20;;;7.10;91.70;;;;;;4985318;28;20120;-84
2024/01/30 00:06:23;;;;;;;20.38;16.17;;;7.20;91.80;;;;;;4983166;28;20057;-86
2024/01/30 00:08:49;;;;;;;22.02;17.85;;;7.20;91.80;;;;;;4983400;28;20048;-86
2024/01/30 00:11:16;;;;;;;22.00;17.70;;;7.20;91.90;;;;;;4990033;28;20073;-85
2024/01/30 00:13:41;;;;;;;23.27;17.58;;;7.30;91.90;;;;;;5003409;28;20041;-85
2024/01/30 00:16:09;;;;;;;23.98;17.98;;;7.20;92.00;;;;;;4992225;28;20030;-85
2024/01/30 00:18:34;;;;;;;23.42;17.40;;;7.20;92.00;;;;;;5006589;28;20034;-85
2024/01/30 00:21:00;;;;;;;23.80;18.15;;;7.20;92.00;;;;;;4987579;28;20034;-87
2024/01/30 00:23:25;;;;;;;22.90;18.00;;;7.30;92.00;;;;;;5002600;28;20479;-87
2024/01/30 00:25:51;;;;;;;22.75;17.13;;;7.30;92.00;;;;;;4987774;28;20041;-87
2024/01/30 00:28:17;;;;;;;19.50;16.38;;;7.30;92.00;;;;;;5003829;28;20099;-87
2024/01/30 00:30:42;;;;;;;21.58;17.08;;;7.30;92.00;;;;;;5005855;28;20049;-81
2024/01/30 00:33:09;;;;;;;22.70;17.50;;;7.60;92.10;;;;;;5011452;28;20052;-81
2024/01/30 00:35:35;;;;;;;20.50;16.80;;;7.30;91.90;;;;;;4995626;28;20038;-81
2024/01/30 00:38:00;;;;;;;21.42;15.75;;;7.30;91.90;;;;;;5013339;28;20501;-81
2024/01/30 00:40:26;;;;;;;21.33;17.23;;;7.30;91.90;;;;;;4997992;28;20034;-81
2024/01/30 00:42:52;;;;;;;21.33;17.08;;;7.40;91.90;;;;;;4992927;28;20041;-81
2024/01/30 00:45:18;;;;;;;21.98;17.45;;;7.20;91.80;;;;;;5014329;28;20393;-81
2024/01/30 00:47:44;;;;;;;22.25;18.15;;;7.20;92.00;;;;;;4978475;28;20038;-81
2024/01/30 00:50:09;;;;;;;23.65;17.45;;;7.20;91.80;;;;;;5014905;28;20068;-81
2024/01/30 00:52:36;;;;;;;22.67;17.85;;;7.20;91.80;;;;;;5012274;28;20038;-81
2024/01/30 00:55:02;;;;;;;25.02;18.08;;;7.20;91.70;;;;;;4995853;28;20037;-81
2024/01/30 00:57:28;;;;;;;25.98;17.95;;;7.20;91.70;;;;;;4996474;28;20041;-81
2024/01/30 00:59:54;;;;;;;22.35;18.48;;;7.20;91.70;;;;;;4996553;28;20041;-81
2024/01/30 01:02:20;;;;;;;20.63;17.17;;;7.10;91.70;;;;;;5013515;28;20037;-81
2024/01/30 01:04:46;;;;;;;21.48;17.55;;;7.10;91.70;;;;;;4995512;28;20078;-81
2024/01/30 01:07:11;;;;;;;21.63;17.73;;;7.10;91.70;;;;;;5015031;28;20030;-81
2024/01/30 01:09:37;;;;;;;21.35;17.55;;;7.10;91.80;;;;;;5010150;28;20034;-81
2024/01/30 01:12:03;;;;;;;22.48;18.15;;;7.00;91.60;;;;;;4997355;28;20052;-81
2024/01/30 01:14:29;;;;;;;21.42;18.02;;;7.00;91.60;;;;;;4995541;28;20037;-81
2024/01/30 01:16:55;;;;;;;24.55;17.25;;;7.00;91.60;;;;;;4992824;28;20048;-81
2024/01/30 01:19:22;;;;;;;24.75;18.75;;;7.00;91.60;;;;;;4996164;28;20145;-81
2024/01/30 01:21:47;;;;;;;23.95;18.45;;;7.00;91.60;;;;;;5017916;28;20041;-81
2024/01/30 01:24:16;;;;;;;24.80;19.17;;;6.90;91.60;;;;;;5003528;28;20038;-81
2024/01/30 01:26:41;;;;;;;24.35;18.00;;;7.10;91.70;;;;;;4996941;28;20033;-81
2024/01/30 01:29:11;;;;;;;23.27;17.23;;;6.90;91.60;;;;;;5024825;28;20104;-81
2024/01/30 01:31:43;;;;;;;22.55;17.27;;;6.90;91.60;;;;;;5003577;28;20117;-81
2024/01/30 01:34:12;;;;;;;22.70;17.67;;;6.80;91.60;;;;;;4990437;28;20029;-81
2024/01/30 01:36:39;;;;;;;22.00;16.80;;;6.80;91.60;;;;;;5000858;23;20053;-85
2024/01/30 01:39:05;;;;;;;23.20;17.88;;;6.80;91.60;;;;;;4987435;28;20116;-85
2024/01/30 01:41:31;;;;;;;24.90;18.50;;;6.80;91.60;;;;;;4979049;28;20042;-85
2024/01/30 01:43:57;;;;;;;25.20;18.67;;;6.70;91.60;;;;;;4985546;28;20405;-85
2024/01/30 01:46:23;;;;;;;23.23;17.73;;;6.70;91.60;;;;;;4991885;28;20117;-87
2024/01/30 01:48:49;;;;;;;23.77;18.02;;;6.70;91.60;;;;;;4987961;28;20035;-87
2024/01/30 01:51:16;;;;;;;25.23;18.77;;;6.70;91.60;;;;;;4986658;28;20046;-87
2024/01/30 01:53:42;;;;;;;24.83;19.08;;;6.60;91.60;;;;;;4980945;28;20042;-86
2024/01/30 01:56:08;;;;;;;22.20;17.17;;;6.60;91.60;;;;;;4984859;28;20107;-86
2024/01/30 01:58:34;;;;;;;25.45;18.10;;;6.60;91.60;;;;;;4983629;28;20073;-87
2024/01/30 02:00:59;;;;;;;22.58;18.38;;;6.60;91.70;;;;;;4988805;28;20076;-87
2024/01/30 02:03:25;;;;;;;23.02;18.13;;;6.60;91.70;;;;;;4993389;28;20038;-87
2024/01/30 02:05:51;;;;;;;24.05;19.17;;;6.50;91.70;;;;;;5000732;28;20389;-87
2024/01/30 02:08:17;;;;;;;23.30;17.58;;;6.50;91.70;;;;;;4986182;28;20506;-86
2024/01/30 02:10:43;;;;;;;24.88;19.40;;;6.50;91.70;;;;;;4984238;28;20065;-85
2024/01/30 02:13:08;;;;;;;24.70;17.83;;;6.50;91.80;;;;;;4998154;28;20046;-85
2024/01/30 02:15:34;;;;;;;20.60;17.33;;;6.40;91.80;;;;;;4980136;28;20061;-86
2024/01/30 02:17:59;;;;;;;23.42;18.40;;;6.40;91.80;;;;;;5000865;28;20050;-86
2024/01/30 02:20:27;;;;;;;23.05;17.90;;;6.40;91.80;;;;;;4979776;28;20042;-87
2024/01/30 02:22:58;;;;;;;24.17;18.27;;;6.40;91.80;;;;;;4986908;28;20069;-87
2024/01/30 02:25:31;;;;;;;25.52;19.08;;;6.40;91.80;;;;;;4985784;28;20438;-87
2024/01/30 02:27:57;;;;;;;23.63;19.08;;;6.40;91.80;;;;;;4990286;28;20042;-87
2024/01/30 02:30:22;;;;;;;21.27;17.88;;;6.30;91.70;;;;;;4982652;28;20037;-86
2024/01/30 02:32:48;;;;;;;23.55;18.80;;;6.30;91.70;;;;;;4980045;28;20220;-86
2024/01/30 02:35:14;;;;;;;24.92;18.00;;;6.30;91.70;;;;;;4984897;28;20385;-86
2024/01/30 02:37:39;;;;;;;24.08;18.15;;;6.30;91.70;;;;;;4995381;28;20100;-85
2024/01/30 02:40:05;;;;;;;25.00;19.25;;;6.20;91.70;;;;;;5002485;28;20411;-85
2024/01/30 02:42:31;;;;;;;24.73;18.42;;;6.20;91.70;;;;;;4997836;28;20034;-87
2024/01/30 02:44:57;;;;;;;22.58;18.55;;;6.20;91.80;;;;;;4985448;28;20034;-87
2024/01/30 02:47:22;;;;;;;22.25;17.80;;;6.20;91.80;;;;;;4994021;28;20033;-87
2024/01/30 02:49:48;;;;;;;23.67;19.30;;;6.20;91.80;;;;;;5002953;28;20066;-87
2024/01/30 02:52:14;;;;;;;20.48;17.08;;;6.10;91.80;;;;;;4987994;28;20046;-87
2024/01/30 02:54:39;;;;;;;20.88;16.60;;;6.10;91.80;;;;;;4981777;28;20421;-87
2024/01/30 02:57:05;;;;;;;23.65;18.48;;;6.10;91.90;;;;;;4986154;28;20162;-87
2024/01/30 02:59:33;;;;;;;21.30;17.05;;;6.10;91.90;;;;;;4999214;28;20030;-87
2024/01/30 03:01:59;;;;;;;22.55;17.75;;;6.10;91.80;;;;;;4977433;28;20026;-87
2024/01/30 03:04:24;;;;;;;23.30;18.45;;;6.00;91.80;;;;;;4973910;28;20107;-87
2024/01/30 03:06:50;;;;;;;19.88;16.85;;;5.90;91.80;;;;;;4989019;28;20513;-87
2024/01/30 03:09:17;;;;;;;24.42;18.45;;;6.60;92.00;;;;;;4987425;28;20058;-87
2024/01/30 03:11:43;;;;;;;22.20;18.73;;;5.90;91.80;;;;;;5001617;28;20119;-87
2024/01/30 03:14:10;;;;;;;26.85;19.90;;;5.90;91.90;;;;;;4992514;28;20042;-87
2024/01/30 03:16:37;;;;;;;24.08;18.42;;;5.90;92.00;;;;;;4992995;28;20540;-87
2024/01/30 03:19:03;;;;;;;25.20;19.15;;;5.90;92.00;;;;;;5004845;28;20093;-87
2024/01/30 03:21:29;;;;;;;26.10;19.55;;;5.90;92.10;;;;;;4980739;28;20038;-87
2024/01/30 03:23:55;;;;;;;25.40;19.63;;;5.90;92.30;;;;;;4986182;28;20038;-87
2024/01/30 03:26:20;;;;;;;28.27;19.83;;;5.90;92.20;;;;;;4978357;28;20041;-86
2024/01/30 03:28:46;;;;;;;24.58;19.25;;;5.90;92.20;;;;;;4983610;28;20476;-86
2024/01/30 03:31:15;;;;;;;27.60;20.20;;;5.90;92.30;;;;;;4988256;28;20033;-85
2024/01/30 03:33:41;;;;;;;23.60;19.20;;;6.00;92.40;;;;;;4989153;28;20034;-85
2024/01/30 03:36:07;;;;;;;27.73;20.13;;;6.00;92.40;;;;;;4994945;28;20118;-85
2024/01/30 03:38:33;;;;;;;24.60;19.55;;;6.00;92.50;;;;;;4976320;28;20061;-85
2024/01/30 03:40:59;;;;;;;25.00;18.65;;;6.70;92.70;;;;;;5002464;28;20030;-85
2024/01/30 03:43:25;;;;;;;25.05;19.23;;;6.00;92.60;;;;;;4996025;28;20046;-85
2024/01/30 03:45:51;;;;;;;27.15;19.38;;;6.10;92.70;;;;;;4985012;28;20058;-85
2024/01/30 03:48:16;;;;;;;27.33;19.45;;;6.10;92.80;;;;;;4981196;28;20049;-87
2024/01/30 03:50:42;;;;;;;30.42;20.45;;;6.20;92.90;;;;;;4982454;28;20473;-87
2024/01/30 03:53:08;;;;;;;22.88;18.30;;;6.20;92.90;;;;;;5002375;28;20037;-87
2024/01/30 03:55:33;;;;;;;23.92;17.98;;;6.20;92.90;;;;;;4978766;28;20041;-87
2024/01/30 03:57:59;;;;;;;25.17;18.40;;;6.30;93.00;;;;;;4980461;28;20059;-86
2024/01/30 04:00:24;;;;;;;22.77;18.27;;;6.30;93.10;;;;;;4997086;28;20409;-86
2024/01/30 04:02:51;;;;;;;23.33;17.13;;;6.30;93.10;;;;;;4984860;28;20042;-86
2024/01/30 04:05:17;;;;;;;20.65;16.17;;;6.40;93.20;;;;;;4982123;28;20084;-86
2024/01/30 04:07:42;;;;;;;22.52;18.02;;;6.40;93.30;;;;;;4997770;28;20517;-86
2024/01/30 04:10:09;;;;;;;22.00;17.08;;;6.50;93.30;;;;;;4986437;28;20065;-87
2024/01/30 04:12:35;;;;;;;22.27;16.38;;;6.60;93.30;;;;;;4992954;28;20038;-86
2024/01/30 04:15:02;;;;;;;25.15;16.17;;;6.60;93.30;;;;;;4989741;28;20041;-87
2024/01/30 04:17:28;;;;;;;20.02;16.73;;;6.60;93.30;;;;;;4980652;28;20057;-86
2024/01/30 04:19:54;;;;;;;23.58;17.65;;;6.60;93.30;;;;;;5006598;28;20117;-86
2024/01/30 04:22:20;;;;;;;20.13;16.35;;;6.70;93.30;;;;;;4994428;28;20038;-86
2024/01/30 04:24:46;;;;;;;23.40;16.30;;;6.70;93.30;;;;;;5006270;28;20034;-86
2024/01/30 04:27:12;;;;;;;23.75;17.13;;;6.70;93.30;;;;;;4991916;28;20120;-87
2024/01/30 04:29:37;;;;;;;20.40;15.80;;;6.70;93.30;;;;;;4986649;28;20034;-86
2024/01/30 04:32:04;;;;;;;18.67;15.43;;;6.70;93.30;;;;;;4988730;28;20049;-87
2024/01/30 04:34:29;;;;;;;19.08;15.80;;;6.80;93.30;;;;;;4983826;28;20517;-87
2024/01/30 04:36:55;;;;;;;19.55;16.13;;;6.80;93.30;;;;;;4982833;28;20054;-86
2024/01/30 04:39:20;;;;;;;19.85;15.35;;;6.80;93.30;;;;;;4982586;28;20117;-85
2024/01/30 04:41:46;;;;;;;21.42;16.00;;;6.90;93.30;;;;;;4989184;28;20038;-85
2024/01/30 04:44:11;;;;;;;21.45;15.45;;;6.80;93.30;;;;;;4991321;28;20076;-85
2024/01/30 04:46:37;;;;;;;20.33;15.13;;;6.90;93.30;;;;;;5002296;28;20411;-86
2024/01/30 04:49:03;;;;;;;20.33;15.73;;;6.90;93.30;;;;;;4991706;28;20045;-87
2024/01/30 04:51:29;;;;;;;17.63;14.32;;;6.90;93.30;;;;;;4996478;28;20038;-87
2024/01/30 04:53:55;;;;;;;20.30;15.68;;;7.00;93.30;;;;;;5008651;28;20111;-87
2024/01/30 04:56:21;;;;;;;20.13;15.15;;;7.00;93.20;;;;;;4996453;28;20489;-86
2024/01/30 04:58:47;;;;;;;20.50;15.27;;;7.00;93.20;;;;;;4994786;28;20493;-87
2024/01/30 05:01:16;;;;;;;20.65;15.63;;;7.00;93.20;;;;;;4986355;28;20029;-87
2024/01/30 05:03:42;;;;;;;20.20;14.82;;;7.00;93.20;;;;;;4977338;28;20038;-87
2024/01/30 05:06:08;;;;;;;19.10;15.00;;;7.10;93.20;;;;;;5001190;28;20520;-87
2024/01/30 05:08:36;;;;;;;21.27;15.10;;;7.10;93.10;;;;;;4997396;28;20038;-86
2024/01/30 05:11:03;;;;;;;19.58;14.70;;;7.10;93.10;;;;;;4989693;28;20112;-86
2024/01/30 05:13:30;;;;;;;21.08;15.27;;;7.80;93.30;;;;;;4982077;28;20481;-85
2024/01/30 05:15:56;;;;;;;19.40;14.15;;;7.20;93.10;;;;;;4976148;28;20085;-86
2024/01/30 05:18:21;;;;;;;17.88;14.40;;;7.20;93.10;;;;;;4979529;28;20049;-86
2024/01/30 05:20:47;;;;;;;17.48;13.75;;;7.20;93.00;;;;;;4990515;28;20037;-87
2024/01/30 05:23:12;;;;;;;17.80;13.32;;;7.20;93.00;;;;;;4988925;28;20045;-86
2024/01/30 05:25:38;;;;;;;19.30;14.30;;;7.20;92.90;;;;;;4998281;28;20042;-86
2024/01/30 05:28:04;;;;;;;19.40;13.60;;;7.20;92.90;;;;;;4990801;28;20069;-86
2024/01/30 05:30:29;;;;;;;18.30;13.80;;;7.30;92.90;;;;;;4982116;28;20062;-86
2024/01/30 05:32:55;;;;;;;19.20;14.35;;;7.30;92.80;;;;;;5005535;28;20049;-86
2024/01/30 05:35:21;;;;;;;17.92;13.93;;;7.30;92.80;;;;;;4980085;28;20042;-86
2024/01/30 05:37:49;;;;;;;20.30;13.43;;;7.30;92.80;;;;;;4995940;28;20078;-86
2024/01/30 05:40:14;;;;;;;17.08;13.95;;;7.30;92.70;;;;;;4986372;28;20096;-87
2024/01/30 05:42:40;;;;;;;18.20;13.50;;;7.30;92.70;;;;;;5001038;28;20033;-87
2024/01/30 05:45:06;;;;;;;15.77;12.52;;;7.30;92.70;;;;;;4987665;28;20030;-87
2024/01/30 05:47:31;;;;;;;18.90;14.57;;;7.30;92.60;;;;;;4981405;28;20038;-87
2024/01/30 05:49:57;;;;;;;20.27;14.10;;;7.40;92.60;;;;;;4991490;28;20044;-87
2024/01/30 05:52:23;;;;;;;15.50;12.88;;;7.40;92.60;;;;;;4981413;28;20038;-87
2024/01/30 05:54:48;;;;;;;16.83;12.82;;;7.40;92.60;;;;;;5003677;28;20068;-87
2024/01/30 05:57:14;;;;;;;14.75;12.15;;;7.40;92.50;;;;;;4990838;28;20046;-87
2024/01/30 05:59:39;;;;;;;15.55;12.43;;;7.50;92.50;;;;;;4980102;28;20046;-87
2024/01/30 06:02:05;;;;;;;19.58;13.23;;;7.40;92.50;;;;;;4986866;28;20074;-87
2024/01/30 06:04:31;;;;;;;15.95;13.20;;;7.40;92.50;;;;;;4976573;28;20043;-87
2024/01/30 06:06:56;;;;;;;14.63;13.00;;;7.40;92.50;;;;;;4981330;28;20038;-87
2024/01/30 06:09:22;;;;;;;16.83;12.63;;;7.40;92.40;;;;;;4978885;28;20557;-87
2024/01/30 06:11:47;;;;;;;18.35;11.63;;;7.50;92.50;;;;;;4990004;28;20037;-87
2024/01/30 06:14:13;;;;;;;16.33;12.88;;;7.50;92.50;;;;;;4988084;28;20125;-86
2024/01/30 06:16:38;;;;;;;15.55;12.80;;;7.50;92.50;;;;;;4984970;28;20405;-85
2024/01/30 06:19:04;;;;;;;18.27;11.90;;;7.50;92.40;;;;;;5005198;28;20088;-85
2024/01/30 06:21:31;;;;;;;18.67;12.32;;;7.60;92.50;;;;;;4978433;28;20041;-84
2024/01/30 06:23:57;;;;;;;15.85;12.10;;;7.50;92.40;;;;;;4997908;28;20070;-85
2024/01/30 06:26:22;;;;;;;15.73;12.88;;;7.60;92.50;;;;;;4998713;28;20046;-85
2024/01/30 06:28:48;;;;;;;15.05;11.65;;;7.60;92.40;;;;;;4981830;28;20049;-86
2024/01/30 06:31:13;;;;;;;15.93;12.20;;;8.40;92.70;;;;;;4983676;28;20476;-87
2024/01/30 06:33:42;;;;;;;16.02;11.80;;;7.70;92.40;;;;;;4974157;28;20049;-85
2024/01/30 06:36:07;;;;;;;15.52;11.88;;;7.70;92.40;;;;;;4995207;28;20130;-86
2024/01/30 06:38:33;;;;;;;16.38;12.07;;;7.70;92.40;;;;;;4994350;28;20051;-87
2024/01/30 06:40:58;;;;;;;15.32;12.60;;;7.70;92.40;;;;;;5001827;28;20404;-86
2024/01/30 06:43:24;;;;;;;13.65;11.25;;;7.80;92.40;;;;;;4980694;28;20073;-85
2024/01/30 06:45:51;;;;;;;15.68;11.48;;;7.90;92.40;;;;;;4988622;28;20481;-86
2024/01/30 06:48:17;;;;;;;14.70;12.07;;;7.80;92.40;;;;;;5000865;28;20038;-86
2024/01/30 06:50:42;;;;;;;14.65;12.43;;;7.80;92.30;;;;;;4992242;28;20116;-86
2024/01/30 06:53:08;;;;;;;15.98;11.70;;;7.90;92.40;;;;;;5001981;28;20087;-86
2024/01/30 06:55:34;;;;;;;16.25;11.52;;;7.90;92.30;;;;;;4979085;28;20044;-86
2024/01/30 06:57:59;;;;;;;15.63;11.40;;;7.90;92.30;;;;;;4984885;28;20045;-86
2024/01/30 07:00:25;;;;;;;17.33;12.30;;;7.90;92.30;;;;;;4979142;28;20038;-86
2024/01/30 07:02:50;;;;;;;13.90;11.73;;;7.90;92.30;;;;;;4986637;28;20397;-86
2024/01/30 07:05:17;;;;;;;18.08;11.85;;;8.00;92.30;;;;;;4998772;28;20176;-86
2024/01/30 07:07:43;;;;;;;13.57;11.40;;;8.00;92.20;;;;;;4980800;28;20035;-86
2024/01/30 07:10:08;;;;;;;16.27;11.60;;;8.00;92.20;;;;;;4985562;28;20034;-86
2024/01/30 07:12:34;;;;;;;14.82;11.52;;;8.40;92.30;;;;;;4994160;28;20046;-86
2024/01/30 07:15:00;;;;;;;15.88;12.60;;;8.00;92.10;;;;;;4984395;28;20070;-86
2024/01/30 07:17:25;;;;;;;17.85;11.60;;;8.00;92.10;;;;;;4999453;28;20136;-86
2024/01/30 07:19:51;;;;;;;16.48;11.88;;;8.00;92.10;;;;;;5005628;28;20061;-86
2024/01/30 07:22:16;;;;;;;15.77;11.73;;;8.00;92.10;;;;;;4988222;28;20065;-86
2024/01/30 07:24:44;;;;;;;14.95;11.43;;;8.10;92.10;;;;;;4995807;28;20030;-86
2024/01/30 07:27:10;;;;;;;17.17;11.63;;;8.10;92.10;;;;;;5001686;28;20041;-86
2024/01/30 07:29:36;;;;;;;15.95;12.18;;;8.10;92.10;;;;;;4982964;28;20095;-86
2024/01/30 07:32:01;;;;;;;16.60;11.40;;;8.10;92.00;;;;;;4986135;28;20085;-86
2024/01/30 07:34:27;;;;;;;17.25;12.15;;;8.20;92.10;;;;;;4991897;28;21051;-85
2024/01/30 07:36:53;;;;;;;15.60;11.68;;;8.70;92.20;;;;;;4985011;28;20050;-86
2024/01/30 07:39:18;;;;;;;14.48;11.80;;;8.80;92.20;;;;;;4993043;28;20092;-86
2024/01/30 07:41:44;;;;;;;14.38;11.32;;;8.20;92.00;;;;;;5003690;28;20038;-86
2024/01/30 07:44:09;;;;;;;15.32;11.50;;;8.20;92.00;;;;;;4985750;28;20057;-86
2024/01/30 07:46:35;;;;;;;15.18;11.30;;;8.20;91.90;;;;;;4982878;28;20163;-86
2024/01/30 07:49:01;;;;;;;13.50;10.75;;;8.20;91.90;;;;;;4984456;28;20034;-86
2024/01/30 07:51:29;;;;;;;15.45;10.75;;;8.20;91.90;;;;;;4981350;28;20037;-85
2024/01/30 07:53:55;;;;;;;15.23;10.25;;;8.30;91.90;;;;;;4985504;28;20065;-86
2024/01/30 07:56:20;;;;;;;14.93;10.93;;;8.30;91.80;;;;;;4983043;28;20053;-86
2024/01/30 07:58:46;;;;;;;13.60;10.73;;;8.30;91.80;;;;;;5006654;28;20065;-85
2024/01/30 08:01:12;;;;;;;17.42;11.30;;;8.30;91.80;;;;;;4991970;28;20038;-86
2024/01/30 08:03:39;;;;;;;15.43;10.80;;;8.30;91.80;;;;;;4982203;28;20041;-86
2024/01/30 08:06:06;;;;;;;13.88;10.68;;;8.30;91.80;;;;;;4983324;28;20037;-85
2024/01/30 08:08:32;;;;;;;13.43;10.98;;;8.30;91.80;;;;;;4979769;28;20469;-86
2024/01/30 08:10:57;;;;;;;13.65;10.82;;;8.40;91.80;;;;;;4984521;28;20068;-86
2024/01/30 08:13:23;;;;;;;12.88;10.68;;;8.40;91.70;;;;;;4980157;28;20092;-86
2024/01/30 08:15:48;;;;;;;14.85;10.55;;;8.40;91.70;;;;;;5001939;28;20038;-86
2024/01/30 08:18:14;;;;;;;14.02;10.40;;;8.40;91.70;;;;;;5002798;28;20053;-86
2024/01/30 08:20:40;;;;;;;13.00;10.98;;;8.40;91.70;;;;;;4996337;28;20062;-86
2024/01/30 08:23:05;;;;;;;15.02;11.00;;;8.40;91.60;;;;;;5000413;28;20034;-86
2024/01/30 08:25:31;;;;;;;14.85;11.10;;;9.20;91.90;;;;;;4981286;28;20036;-86
2024/01/30 08:27:57;;;;;;;16.95;11.70;;;8.50;91.60;;;;;;4984646;28;20038;-86
2024/01/30 08:30:23;;;;;;;15.90;10.35;;;8.60;91.70;;;;;;4977541;28;20042;-86
2024/01/30 08:32:48;;;;;;;12.95;10.10;;;8.50;91.60;;;;;;4986928;28;20037;-86
2024/01/30 08:35:15;;;;;;;14.13;10.20;;;8.50;91.60;;;;;;4998725;28;20042;-86
2024/01/30 08:37:41;;;;;;;13.65;10.07;;;8.50;91.60;;;;;;4995045;28;20045;-86
2024/01/30 08:40:08;;;;;;;12.68;9.90;;;8.50;91.60;;;;;;4976376;28;20397;-86
2024/01/30 08:42:34;;;;;;;13.07;10.27;;;8.50;91.60;;;;;;4978180;28;20034;-86
2024/01/30 08:45:00;;;;;;;13.98;10.77;;;8.50;91.60;;;;;;4986297;28;20457;-86
2024/01/30 08:47:25;;;;;;;16.55;10.30;;;8.50;91.60;;;;;;4999899;28;20101;-86
2024/01/30 08:49:51;;;;;;;14.38;11.02;;;8.60;91.60;;;;;;4994406;28;20038;-86
2024/01/30 08:52:17;;;;;;;15.40;10.90;;;8.90;91.70;;;;;;4986991;28;20045;-85
2024/01/30 08:54:43;;;;;;;16.70;11.15;;;8.90;91.80;;;;;;4993584;28;20173;-86
2024/01/30 08:57:08;;;;;;;14.55;10.43;;;8.60;91.70;;;;;;4988205;28;20077;-86
2024/01/30 08:59:34;;;;;;;14.15;10.00;;;8.60;91.70;;;;;;4981264;28;20046;-86
2024/01/30 09:01:59;;;;;;;13.15;10.88;;;8.60;91.70;;;;;;5004799;28;20045;-87
2024/01/30 09:04:25;;;;;;;16.05;11.05;;;9.10;91.90;;;;;;4994876;28;20168;-86
2024/01/30 09:06:51;;;;;;;15.23;10.13;;;8.60;91.80;;;;;;4987249;28;20041;-86
2024/01/30 09:09:17;;;;;;;15.77;10.50;;;8.60;91.80;;;;;;4990795;28;20034;-86
2024/01/30 09:11:43;;;;;;;14.70;11.25;;;8.70;91.90;;;;;;4983122;28;20048;-86
2024/01/30 09:14:09;;;;;;;14.07;10.18;;;8.70;91.90;;;;;;4987634;28;20482;-86
2024/01/30 09:16:35;;;;;;;14.10;10.80;;;8.70;91.90;;;;;;4998791;28;20038;-86
2024/01/30 09:19:00;;;;;;;15.77;11.63;;;8.80;91.90;;;;;;5006119;28;20124;-86
2024/01/30 09:21:26;;;;;;;14.80;11.00;;;8.80;92.00;;;;;;4980585;28;20081;-86
2024/01/30 09:23:54;;;;;;;16.35;10.73;;;8.80;92.00;;;;;;4983555;28;20034;-86
2024/01/30 09:26:20;;;;;;;17.20;11.32;;;8.80;92.00;;;;;;4990436;28;20033;-86
2024/01/30 09:28:45;;;;;;;14.52;11.07;;;8.90;92.10;;;;;;5007015;28;20073;-86
2024/01/30 09:31:12;;;;;;;13.45;10.30;;;8.90;92.10;;;;;;4992961;28;20040;-86
2024/01/30 09:33:38;;;;;;;11.70;9.93;;;8.90;92.10;;;;;;4983650;28;20091;-86
2024/01/30 09:36:05;;;;;;;14.50;11.43;;;8.90;92.10;;;;;;5001723;28;20049;-86
2024/01/30 09:38:31;;;;;;;16.08;10.82;;;9.00;92.10;;;;;;4984891;28;20050;-86
2024/01/30 09:41:02;;;;;;;14.40;10.75;;;9.20;92.10;;;;;;5008444;28;20037;-85
2024/01/30 09:43:33;;;;;;;15.80;10.50;;;9.00;92.10;;;;;;4980261;28;20045;-86
2024/01/30 09:46:02;;;;;;;13.23;10.48;;;9.70;92.30;;;;;;5000665;28;20117;-85
2024/01/30 09:48:28;;;;;;;18.23;11.05;;;9.10;92.10;;;;;;4995390;28;20144;-86
2024/01/30 09:50:54;;;;;;;15.43;11.55;;;9.20;92.20;;;;;;4988776;28;20085;-86
2024/01/30 09:53:21;;;;;;;18.58;11.02;;;9.10;92.20;;;;;;4998801;28;20484;-86
2024/01/30 09:55:47;;;;;;;14.88;10.75;;;9.20;92.20;;;;;;4987189;28;20042;-86
2024/01/30 09:58:13;;;;;;;15.30;11.00;;;9.20;92.20;;;;;;4989630;28;20564;-86
2024/01/30 10:00:39;;;;;;;18.00;11.30;;;9.50;92.30;;;;;;4981199;28;20034;-86
2024/01/30 10:03:04;;;;;;;16.50;11.40;;;9.30;92.30;;;;;;4986070;28;20083;-85
2024/01/30 10:05:33;;;;;;;16.95;11.88;;;9.30;92.40;;;;;;4981107;28;20061;-85
2024/01/30 10:07:59;;;;;;;16.52;11.88;;;9.30;92.40;;;;;;5005244;28;20552;-87
2024/01/30 10:10:25;;;;;;;14.65;10.73;;;9.40;92.50;;;;;;5003238;28;20037;-86
2024/01/30 10:12:51;;;;;;;15.63;11.50;;;9.50;92.50;;;;;;4995505;28;20519;-87
2024/01/30 10:15:18;;;;;;;17.48;11.55;;;9.50;92.50;;;;;;4999069;28;20042;-86
2024/01/30 10:17:45;;;;;;;21.50;13.13;;;9.50;92.50;;;;;;5009970;28;20046;-86
2024/01/30 10:20:11;;;;;;;19.45;11.88;;;9.60;92.50;;;;;;5008542;28;20057;-87
2024/01/30 10:22:36;;;;;;;20.27;12.65;;;9.60;92.40;;;;;;4986573;28;20030;-88
2024/01/30 10:25:02;;;;;;;19.20;12.65;;;9.70;92.50;;;;;;4989419;28;20057;-86
2024/01/30 10:27:29;;;;;;;16.70;11.48;;;9.70;92.40;;;;;;4982883;28;20045;-86
2024/01/30 10:29:55;;;;;;;19.83;12.10;;;9.70;92.40;;;;;;5006050;28;20044;-86
2024/01/30 10:32:21;;;;;;;15.88;11.68;;;10.60;92.60;;;;;;4979411;28;20077;-86
2024/01/30 10:34:47;;;;;;;16.02;12.57;;;9.80;92.40;;;;;;5003381;28;20042;-86
2024/01/30 10:37:17;;;;;;;19.10;11.82;;;10.50;92.60;;;;;;4988673;28;20050;-86
2024/01/30 10:39:46;;;;;;;15.45;11.32;;;9.80;92.30;;;;;;4982752;28;20481;-86
2024/01/30 10:42:17;;;;;;;16.50;12.13;;;9.90;92.40;;;;;;4989533;28;20509;-86
2024/01/30 10:45:02;;;;;;;19.00;11.82;;;9.90;92.30;;;;;;4983740;28;20038;-86
2024/01/30 10:47:28;;;;;;;19.15;11.63;;;9.90;92.30;;;;;;4980591;28;20101;-86
2024/01/30 10:49:55;;;;;;;15.82;12.23;;;10.00;92.30;;;;;;4983240;28;20046;-86
2024/01/30 10:52:25;;;;;;;17.42;12.00;;;10.00;92.30;;;;;;4982443;28;20489;-86
2024/01/30 10:54:52;;;;;;;21.08;12.75;;;10.00;92.30;;;;;;4988717;28;20040;-86
2024/01/30 10:57:18;;;;;;;18.92;12.98;;;10.00;92.20;;;;;;4991797;28;20042;-87
2024/01/30 10:59:44;;;;;;;16.83;12.65;;;10.10;92.20;;;;;;4999988;28;20039;-86
2024/01/30 11:02:11;;;;;;;16.92;12.05;;;10.00;92.20;;;;;;5004910;28;20052;-87
2024/01/30 11:04:38;;;;;;;16.55;11.38;;;10.10;92.20;;;;;;4993537;28;20038;-86
2024/01/30 11:07:15;;;;;;;21.40;13.20;;;10.10;92.20;;;;;;4989632;28;20494;-87
2024/01/30 11:09:48;;;;;;;20.35;14.68;;;10.10;92.20;;;;;;4984038;28;20077;-86
2024/01/30 11:12:13;;;;;;;18.80;12.20;;;10.20;92.20;;;;;;4998324;28;20078;-86
2024/01/30 11:14:40;;;;;;;23.77;13.70;;;10.10;92.10;;;;;;4985564;28;20552;-86
2024/01/30 11:17:05;;;;;;;16.83;12.10;;;10.20;92.10;;;;;;4989516;28;20034;-86
2024/01/30 11:19:32;;;;;;;20.20;13.95;;;10.20;92.10;;;;;;4982072;28;20041;-85
2024/01/30 11:21:58;;;;;;;20.85;14.07;;;10.20;92.10;;;;;;4988297;28;20038;-86
2024/01/30 11:24:24;;;;;;;23.58;13.93;;;10.20;92.10;;;;;;4986867;28;20046;-85
2024/01/30 11:26:55;;;;;;;17.42;12.98;;;10.20;92.10;;;;;;4985788;28;20042;-85
2024/01/30 11:29:27;;;;;;;18.95;13.23;;;10.40;92.10;;;;;;4979527;28;20036;-85
2024/01/30 11:32:00;;;;;;;17.17;12.73;;;10.20;92.00;;;;;;4986180;28;20034;-87
2024/01/30 11:34:25;;;;;;;20.90;12.88;;;10.30;92.00;;;;;;4991650;28;20044;-86
2024/01/30 11:37:09;;;;;;;25.38;14.13;;;10.30;91.90;;;;;;4983940;28;20050;-86
2024/01/30 11:39:36;;;;;;;21.35;12.60;;;10.30;91.80;;;;;;4984402;28;20050;-87
2024/01/30 11:42:04;;;;;;;20.88;11.50;;;10.60;91.90;;;;;;5002957;28;20038;-86
2024/01/30 11:44:30;;;;;;;20.70;11.05;;;10.30;91.70;;;;;;4996023;28;20044;-86
2024/01/30 11:46:56;;;;;;;19.50;10.25;;;10.30;91.60;;;;;;4986019;28;20038;-87
2024/01/30 11:49:23;;;;;;;21.20;9.25;;;10.30;91.50;;;;;;4976915;28;20042;-87
2024/01/30 11:51:49;;;;;;;18.60;7.30;;;10.90;91.60;;;;;;4988927;28;20042;-87
2024/01/30 11:54:17;;;;;;;15.90;6.43;;;10.80;91.40;;;;;;4996949;28;20105;-87
2024/01/30 11:56:43;;;;;;;17.75;6.63;;;10.30;91.20;;;;;;4983433;28;20046;-87
2024/01/30 11:59:09;;;;;;;15.40;6.20;;;10.30;91.20;;;;;;5019479;28;20523;-85
2024/01/30 12:01:35;;;;;;;11.65;4.88;;;10.20;91.00;;;;;;4999272;28;20101;-86
2024/01/30 12:04:01;;;;;;;11.68;4.93;;;10.20;90.90;;;;;;5002450;28;20532;-85
2024/01/30 12:06:27;;;;;;;12.05;5.18;;;10.20;90.90;;;;;;4993989;28;20031;-85
2024/01/30 12:09:00;;;;;;;8.63;4.15;;;10.20;90.90;;;;;;5004097;28;20041;-86
2024/01/30 12:11:27;;;;;;;7.90;3.35;;;10.20;90.80;;;;;;5015275;28;20038;-86
2024/01/30 12:13:54;;;;;;;11.18;3.35;;;10.20;90.70;;;;;;4984672;28;20051;-87
2024/01/30 12:16:20;;;;;;;7.93;2.53;;;10.20;90.60;;;;;;4995002;28;20064;-87
2024/01/30 12:18:46;;;;;;;6.65;2.75;;;10.20;90.50;;;;;;5004181;28;20034;-87
2024/01/30 12:21:11;;;;;;;6.55;2.38;;;10.20;90.40;;;;;;5001719;28;20041;-87
2024/01/30 12:23:37;;;;;;;5.90;1.92;;;10.20;90.20;;;;;;4992570;28;20092;-87
2024/01/30 12:26:06;;;;;;;7.40;1.98;;;10.60;90.10;;;;;;5003853;28;20694;-87
2024/01/30 12:28:33;;;;;;;2.70;1.70;;;10.30;89.80;;;;;;4979403;28;20054;-86
2024/01/30 12:31:05;;;;;;;4.63;1.95;;;10.20;89.50;;;;;;4981193;28;20038;-87